Portada
METAR-TAF:

METAR-TAF

Aeropuertos :

Kimberley, Sudáfrica

latitud: 28-48S, longitud: 024-46E, altitud: 1198 m

Observación

El informe se hizo hace 56 minutos, a las 20:00 UTC
Viento 7 kt del oeste-suroeste
Temperatura 5°C
Humedad 56%
Presión 1023 hPa

METAR: FAKM 262000Z AUTO 24007KT //// // ////// 05/M03 Q1023

Hora: 22:56 (20:56 UTC)

Pronóstico

El informe se hizo hace 11 horas y 56 minutos, a las 09:00 UTC
Pronóstico válido del 26 a las 10 UTC al 26 a las 18 UTC
Viento 10 kt del suroeste
Visibilidad 10 km o más
sin nubes por debajo de 1500 m y sin presencia de cumulonimbus.

TAF: FAKM 260900Z 2610/2618 22010KT CAVOK TX10/2612Z TN05/2618Z

Observaciones y pronósticos meteorológicos de más de 4000 aeropuertos (mensajes METAR y TAF).

Los puntos amarillos y rojos representan las estaciones disponibles.

Ponga el ratón en el punto deseado para ver el nombre de la estación.

Haga clic para ver las observaciones y los pronósticos meteorológicos.

Para cambiar el mapa : haga clic en los botones verdes con una cruz de color negro para hacer un zoom, en el botón verde con un guión para alejar o en las flechas verdes para mapas adyacentes.


METAR-TAF: